Pagina principale
METAR-TAF:

METAR-TAF

Aeroporti :

Annecy, Francia

latitudine: 45-55-45N, longitudine: 006-05-56E, altezza: 463 m

Osservazione

Il bollettino è stato emesso 36 minuti fa, alle 23:00 UTC
Vento 5 kt da nord, variando fra nord-ovest e nord-est
Temperature 6°C
Umidità 81%
Pressione 1022 hPa
Visibilità 10 km o più
nessuna nube inferiore a 1500 m e nessun cumulonembo

METAR: LFLP 242300Z AUTO 35005KT 320V050 CAVOK 06/03 Q1022

Ora: 00:36 (23:36 UTC)

Previsione

Il bollettino è stato emesso 9 ore e 36 minuti fa, alle 14:00 UTC
Previsione valida dal 24 alle 15 UTC al 25 alle 15 UTC
Vento 5 kt da ovest/sud-ovest
Visibilità 10 km o più
nessuna nube inferiore a 1500 m e nessun cumulonembo
Temporaneamente
dal 25 alle 03 UTC al 25 alle 09 UTC
Nuvoloso ad un'altezza di 3500 ft
Evoluzione graduale
dal 25 alle 09 UTC al 25 alle 12 UTC
Vento 10 kt da nord

TAF: LFLP 241400Z 2415/2515 24005KT CAVOK TEMPO 2503/2509 BKN035 BECMG 2509/2512 36010KT

Osservazioni e previsioni meteorologiche di più di 4000 aeroporti (messaggi METAR e TAF).

Le stazioni disponibili sono rappresentate dai dischi gialli e rossi sulla carta.

Puntare il mouse per vedere il nome della stazione.

Clicca sopra per visualizzare le osservazioni e previsioni meteorologiche.

Per cambiare la mappa : fare clic sui pulsanti verdi con una croce nera per ingrandire, il pulsante verde con un trattino per diminuire, o sulla freccia verde per le mappe adiacenti.


METAR-TAF: